Time;durP1;ratioP1;P1;durP2;ratioP2;P2;SDS_P1;SDS_P2;PMS_P1;PMS_P2;Temp;Humidity;BMP_temperature;BMP_pressure;BME280_temperature;BME280_humidity;BME280_pressure;Samples;Min_cycle;Max_cycle;Signal;HPM_P1;HPM_P2
2022/09/05 00:02:45;;;;;;;10.75;5.90;;;;;;;16.45;79.86;101808.75;5049238;28;20024;-73
2022/09/05 00:05:39;;;;;;;6.88;5.05;;;;;;;16.42;78.76;101815.00;5049801;28;20120;-73
2022/09/05 00:08:26;;;;;;;12.88;5.57;;;;;;;16.34;79.96;101807.34;5037769;28;20083;-73
2022/09/05 00:11:14;;;;;;;11.07;5.80;;;;;;;16.35;79.13;101808.22;5040468;28;20037;-73
2022/09/05 00:13:45;;;;;;;10.60;5.38;;;;;;;16.26;80.59;101797.97;5047381;28;20053;-73
2022/09/05 00:16:35;;;;;;;10.35;5.55;;;;;;;16.32;79.64;101803.91;5052828;28;20020;-73
2022/09/05 00:19:26;;;;;;;9.60;5.57;;;;;;;16.29;79.72;101808.41;5049216;28;20041;-73
2022/09/05 00:22:09;;;;;;;10.05;5.22;;;;;;;16.27;80.19;101805.81;5049078;28;20041;-73
2022/09/05 00:24:52;;;;;;;7.40;5.50;;;;;;;16.25;80.19;101799.75;5050123;28;20041;-73
2022/09/05 00:27:45;;;;;;;12.47;5.63;;;;;;;16.18;80.63;101806.09;5039038;28;20033;-73
2022/09/05 00:30:16;;;;;;;6.57;5.85;;;;;;;16.14;81.12;101805.34;5047844;28;20033;-73
2022/09/05 00:33:07;;;;;;;9.73;5.55;;;;;;;16.10;81.02;101803.72;5050310;28;20082;-73
2022/09/05 00:35:36;;;;;;;9.88;5.30;;;;;;;16.06;81.40;101796.84;5047010;28;20033;-73
2022/09/05 00:38:15;;;;;;;10.50;5.70;;;;;;;16.04;80.94;101806.53;5047304;28;20033;-73
2022/09/05 00:40:55;;;;;;;8.90;5.50;;;;;;;16.05;81.23;101800.34;5041315;28;20476;-73
2022/09/05 00:43:28;;;;;;;11.77;5.57;;;;;;;16.06;80.88;101803.88;5050438;28;20041;-73
2022/09/05 00:46:01;;;;;;;8.60;5.57;;;;;;;15.96;81.09;101805.94;5050468;28;20115;-73
2022/09/05 00:48:52;;;;;;;8.70;5.72;;;;;;;15.89;81.44;101812.25;5048935;28;20031;-73
2022/09/05 00:51:49;;;;;;;11.55;5.68;;;;;;;15.89;81.27;101800.00;5040084;28;20048;-73
2022/09/05 00:54:23;;;;;;;9.73;5.72;;;;;;;15.88;82.40;101798.25;5044070;28;20037;-73
2022/09/05 00:57:29;;;;;;;8.50;5.50;;;;;;;15.90;81.61;101793.81;5038488;28;20116;-73
2022/09/05 01:00:36;;;;;;;10.57;6.03;;;;;;;15.86;81.54;101797.47;5041302;28;20057;-73
2022/09/05 01:03:33;;;;;;;12.75;5.70;;;;;;;15.85;81.66;101797.50;5040370;28;20504;-73
2022/09/05 01:06:01;;;;;;;11.85;6.47;;;;;;;15.80;83.50;101799.41;5031970;28;20033;-73
2022/09/05 01:08:36;;;;;;;10.73;6.15;;;;;;;15.75;83.66;101801.31;5037945;28;20030;-73
2022/09/05 01:11:36;;;;;;;8.63;5.88;;;;;;;15.75;81.93;101796.03;5031425;28;20428;-72
2022/09/05 01:14:31;;;;;;;10.70;6.78;;;;;;;15.74;82.33;101799.59;5041892;28;20457;-73
2022/09/05 01:17:17;;;;;;;12.15;5.85;;;;;;;15.72;82.34;101791.72;5031252;28;20053;-73
2022/09/05 01:20:12;;;;;;;7.82;5.25;;;;;;;15.71;82.60;101800.53;5032341;28;20033;-73
2022/09/05 01:23:02;;;;;;;10.38;5.82;;;;;;;15.66;82.33;101798.06;5041210;28;20029;-73
2022/09/05 01:26:14;;;;;;;9.52;6.05;;;;;;;15.63;82.32;101800.75;5034197;28;20033;-73
2022/09/05 01:29:03;;;;;;;9.70;5.53;;;;;;;15.61;82.60;101797.28;5042709;28;20071;-73
2022/09/05 01:32:01;;;;;;;11.88;6.28;;;;;;;15.58;82.59;101793.88;5041677;28;20033;-73
2022/09/05 01:34:36;;;;;;;8.73;5.75;;;;;;;15.54;82.72;101803.63;5039582;28;20021;-73
2022/09/05 01:37:28;;;;;;;8.77;5.45;;;;;;;15.51;82.37;101803.72;5048007;28;20029;-73
2022/09/05 01:40:21;;;;;;;7.40;5.20;;;;;;;15.48;83.75;101795.06;5047570;28;20041;-73
2022/09/05 01:43:13;;;;;;;8.05;5.78;;;;;;;15.46;83.20;101788.06;5038055;28;20048;-73
2022/09/05 01:46:16;;;;;;;11.23;6.00;;;;;;;15.45;82.76;101793.38;5045628;28;20037;-73
2022/09/05 01:48:52;;;;;;;10.95;5.80;;;;;;;15.42;83.75;101801.34;5043022;28;20024;-73
2022/09/05 01:51:27;;;;;;;10.95;6.30;;;;;;;15.40;83.43;101797.88;5049544;28;20033;-73
2022/09/05 01:54:23;;;;;;;10.80;5.55;;;;;;;15.38;83.64;101797.09;5045760;28;20029;-72
2022/09/05 01:57:01;;;;;;;9.73;5.70;;;;;;;15.33;83.92;101791.94;5039789;28;20045;-73
2022/09/05 01:59:49;;;;;;;11.68;5.47;;;;;;;15.32;83.17;101797.25;5037376;28;20384;-73
2022/09/05 02:02:22;;;;;;;8.30;5.43;;;;;;;15.23;84.35;101787.84;5046561;28;20488;-73
2022/09/05 02:05:03;;;;;;;9.65;6.00;;;;;;;15.29;84.13;101792.09;5049238;28;20033;-73
2022/09/05 02:07:56;;;;;;;12.50;5.85;;;;;;;15.28;83.56;101800.88;5048134;28;20473;-73
2022/09/05 02:10:31;;;;;;;14.75;6.45;;;;;;;15.31;83.96;101798.16;5045775;28;20033;-73
2022/09/05 02:13:10;;;;;;;9.30;5.80;;;;;;;15.35;84.01;101791.91;5049434;28;20473;-73
2022/09/05 02:16:01;;;;;;;7.20;6.28;;;;;;;15.31;83.33;101798.16;5050333;28;20100;-73
2022/09/05 02:18:54;;;;;;;10.25;6.28;;;;;;;15.30;82.95;101793.78;5035335;28;20038;-73
2022/09/05 02:21:37;;;;;;;8.50;6.28;;;;;;;15.23;84.21;101804.47;5036414;28;20060;-73
2022/09/05 02:24:11;;;;;;;8.05;6.10;;;;;;;15.20;84.89;101807.22;5049311;28;20041;-73
2022/09/05 02:26:59;;;;;;;10.48;6.13;;;;;;;15.20;84.13;101806.31;5035919;28;20029;-73
2022/09/05 02:29:29;;;;;;;6.88;5.72;;;;;;;15.12;84.99;101814.41;5043918;28;20048;-73
2022/09/05 02:32:02;;;;;;;8.65;5.70;;;;;;;15.08;85.17;101812.78;5049538;28;20028;-73
2022/09/05 02:34:49;;;;;;;9.75;6.40;;;;;;;15.07;85.12;101808.41;5037823;28;20368;-73
2022/09/05 02:37:39;;;;;;;14.25;6.57;;;;;;;15.07;84.40;101813.66;5051019;28;20484;-73
2022/09/05 02:40:30;;;;;;;10.32;6.55;;;;;;;15.04;85.32;101799.75;5048246;28;20079;-73
2022/09/05 02:43:24;;;;;;;8.45;6.47;;;;;;;15.04;84.62;101797.13;5041523;28;20983;-73
2022/09/05 02:46:34;;;;;;;11.65;6.63;;;;;;;15.02;84.53;101805.06;5047994;28;20397;-73
2022/09/05 02:49:06;;;;;;;8.85;6.75;;;;;;;14.94;85.62;101804.41;5066371;28;20037;-73
2022/09/05 02:51:38;;;;;;;8.80;6.07;;;;;;;14.96;85.87;101808.72;5042823;28;20028;-73
2022/09/05 02:54:11;;;;;;;8.10;6.40;;;;;;;14.90;85.55;101801.00;5045970;28;20031;-73
2022/09/05 02:56:49;;;;;;;10.50;6.63;;;;;;;14.94;85.80;101804.41;5046770;28;20028;-73
2022/09/05 02:59:37;;;;;;;8.30;6.18;;;;;;;14.92;85.64;101808.84;5045758;28;20029;-73
2022/09/05 03:02:21;;;;;;;7.72;6.30;;;;;;;14.88;86.09;101810.69;5044424;28;20033;-72
2022/09/05 03:05:07;;;;;;;12.73;6.60;;;;;;;14.88;86.04;101817.72;5044519;28;20036;-72
2022/09/05 03:07:50;;;;;;;10.05;6.93;;;;;;;14.88;86.15;101815.94;5045647;28;20014;-73
2022/09/05 03:10:27;;;;;;;8.95;6.22;;;;;;;14.87;85.97;101805.47;5051270;28;20028;-73
2022/09/05 03:13:18;;;;;;;7.65;6.25;;;;;;;14.82;86.17;101804.75;5053479;28;20029;-73
2022/09/05 03:16:15;;;;;;;10.40;7.00;;;;;;;14.84;85.56;101810.78;5053299;28;20546;-73
2022/09/05 03:19:11;;;;;;;10.60;6.93;;;;;;;14.80;85.80;101810.00;5041126;28;20032;-72
2022/09/05 03:21:58;;;;;;;10.00;6.53;;;;;;;14.76;86.61;101803.13;5039838;28;20111;-72
2022/09/05 03:24:47;;;;;;;10.52;6.95;;;;;;;14.72;86.84;101812.84;5050864;28;20051;-73
2022/09/05 03:27:21;;;;;;;9.95;7.03;;;;;;;14.71;86.82;101816.38;5050771;28;20033;-73
2022/09/05 03:30:18;;;;;;;7.70;6.90;;;;;;;14.71;86.29;101805.88;5048253;28;20125;-72
2022/09/05 03:32:52;;;;;;;11.02;7.50;;;;;;;14.67;86.97;101808.59;5049682;28;20072;-72
2022/09/05 03:35:46;;;;;;;14.40;7.53;;;;;;;14.67;87.30;101805.97;5052409;28;20017;-73
2022/09/05 03:38:42;;;;;;;11.23;7.30;;;;;;;14.67;86.76;101801.59;5051414;28;20063;-73
2022/09/05 03:41:44;;;;;;;12.50;6.88;;;;;;;14.67;86.26;101804.22;5038856;28;20110;-72
2022/09/05 03:44:37;;;;;;;12.20;6.70;;;;;;;14.62;87.00;101808.72;5035561;28;20044;-73
2022/09/05 03:47:39;;;;;;;9.75;6.35;;;;;;;14.64;86.93;101811.28;5048665;28;20048;-72
2022/09/05 03:50:44;;;;;;;11.32;6.50;;;;;;;14.64;86.36;101806.91;5051907;28;20097;-73
2022/09/05 03:53:39;;;;;;;13.73;7.13;;;;;;;14.67;86.42;101813.84;5052106;28;20060;-73
2022/09/05 03:56:42;;;;;;;11.40;7.13;;;;;;;14.65;86.14;101799.88;5038443;28;20404;-73
2022/09/05 03:59:46;;;;;;;13.45;6.85;;;;;;;14.62;86.41;101806.09;5053536;28;20402;-73
2022/09/05 04:02:17;;;;;;;14.70;6.95;;;;;;;14.57;87.62;101801.84;5052901;28;20591;-72
2022/09/05 04:04:50;;;;;;;8.93;7.07;;;;;;;14.55;87.70;101807.16;5052241;28;20037;-72
2022/09/05 04:07:29;;;;;;;10.90;6.72;;;;;;;14.52;87.64;101802.84;5052040;28;20594;-73
2022/09/05 04:10:09;;;;;;;17.50;7.05;;;;;;;14.50;88.08;101811.63;5049008;28;20044;-73
2022/09/05 04:12:39;;;;;;;12.50;6.80;;;;;;;14.51;88.22;101815.97;5044330;28;20021;-73
2022/09/05 04:15:27;;;;;;;10.07;6.80;;;;;;;14.51;87.57;101808.97;5050638;28;20021;-73
2022/09/05 04:17:58;;;;;;;9.63;6.50;;;;;;;14.50;88.05;101804.63;5049699;28;20078;-72
2022/09/05 04:20:37;;;;;;;11.20;7.03;;;;;;;14.48;88.27;101803.75;5051215;28;20167;-72
2022/09/05 04:23:26;;;;;;;12.02;6.93;;;;;;;14.48;87.38;101808.16;5037141;28;20025;-73
2022/09/05 04:26:09;;;;;;;10.60;7.10;;;;;;;14.42;88.23;101803.94;5042302;28;20033;-72
2022/09/05 04:28:35;;;;;;;11.88;6.50;;;;;;;14.40;88.41;101803.09;5045352;28;20047;-72
2022/09/05 04:31:26;;;;;;;8.77;6.90;;;;;;;14.39;88.48;101803.16;5050296;28;20476;-72
2022/09/05 04:34:07;;;;;;;11.82;6.93;;;;;;;14.38;88.41;101804.88;5046740;28;20094;-73
2022/09/05 04:36:36;;;;;;;11.60;7.10;;;;;;;14.33;88.93;101812.03;5052301;28;20472;-72
2022/09/05 04:39:16;;;;;;;11.75;7.03;;;;;;;14.34;88.56;101811.13;5049547;28;20025;-73
2022/09/05 04:41:47;;;;;;;10.43;6.85;;;;;;;14.34;89.27;101805.00;5037278;28;20049;-73
2022/09/05 04:44:16;;;;;;;12.32;7.15;;;;;;;14.34;89.45;101813.75;5045107;28;20040;-73
2022/09/05 04:46:47;;;;;;;11.63;7.25;;;;;;;14.30;89.54;101809.47;5051126;28;20029;-72
2022/09/05 04:49:18;;;;;;;11.48;7.45;;;;;;;14.25;89.78;101812.19;5048129;28;20415;-73
2022/09/05 04:51:53;;;;;;;12.35;7.78;;;;;;;14.22;89.66;101821.88;5051304;28;20037;-73
2022/09/05 04:54:27;;;;;;;10.00;7.15;;;;;;;14.23;90.01;101829.72;5042745;28;20295;-73
2022/09/05 04:57:02;;;;;;;12.18;7.57;;;;;;;14.23;90.35;101826.25;5041399;28;20040;-73
2022/09/05 04:59:40;;;;;;;10.48;7.32;;;;;;;14.22;89.95;101832.38;5048649;28;20033;-73
2022/09/05 05:02:36;;;;;;;16.90;8.05;;;;;;;14.28;89.75;101825.22;5043867;28;20674;-73
2022/09/05 05:05:07;;;;;;;13.38;8.07;;;;;;;14.31;89.66;101829.53;5051560;28;20067;-73
2022/09/05 05:08:01;;;;;;;12.80;8.75;;;;;;;14.34;88.96;101824.22;5044841;28;20174;-73
2022/09/05 05:10:32;;;;;;;14.05;7.63;;;;;;;14.34;89.45;101831.25;5034550;28;20092;-73
2022/09/05 05:13:07;;;;;;;10.95;7.30;;;;;;;14.32;89.73;101833.03;5040135;28;20366;-73
2022/09/05 05:15:45;;;;;;;11.93;7.90;;;;;;;14.37;89.34;101831.19;5036736;28;20108;-73
2022/09/05 05:18:16;;;;;;;16.17;7.90;;;;;;;14.38;89.74;101833.75;5033227;28;20090;-73
2022/09/05 05:20:51;;;;;;;18.70;7.72;;;;;;;14.41;89.47;101830.19;5036741;28;20026;-73
2022/09/05 05:23:27;;;;;;;16.20;8.38;;;;;;;14.36;89.32;101824.22;5041050;28;20021;-73
2022/09/05 05:25:56;;;;;;;16.65;8.55;;;;;;;14.46;89.53;101837.06;5046419;28;20396;-73
2022/09/05 05:28:30;;;;;;;12.55;7.22;;;;;;;14.47;89.39;101843.16;5038478;28;20021;-72
2022/09/05 05:31:06;;;;;;;14.90;8.32;;;;;;;14.51;89.74;101848.31;5047359;28;20082;-72
2022/09/05 05:33:34;;;;;;;16.33;8.00;;;;;;;14.52;89.54;101842.19;5046612;28;20086;-73
2022/09/05 05:36:05;;;;;;;12.55;7.90;;;;;;;14.55;89.18;101836.03;5036348;28;20432;-73
2022/09/05 05:38:38;;;;;;;12.25;7.70;;;;;;;14.64;89.11;101838.41;5034369;28;20772;-73
2022/09/05 05:41:32;;;;;;;13.57;7.22;;;;;;;14.66;88.66;101836.63;5038989;28;20105;-73
2022/09/05 05:43:58;;;;;;;12.63;7.60;;;;;;;14.75;88.67;101838.16;5038036;28;20085;-73
2022/09/05 05:46:34;;;;;;;10.98;8.15;;;;;;;14.78;88.28;101835.47;5034205;28;20052;-72
2022/09/05 05:49:14;;;;;;;14.88;8.55;;;;;;;14.88;88.34;101834.31;5038819;28;20029;-72
2022/09/05 05:51:43;;;;;;;16.58;8.73;;;;;;;14.92;88.31;101835.97;5031742;28;20021;-72
2022/09/05 05:54:27;;;;;;;12.13;7.57;;;;;;;15.04;87.45;101847.03;5036847;28;20028;-72
2022/09/05 05:57:21;;;;;;;14.15;8.82;;;;;;;15.13;87.43;101846.78;5043447;28;20021;-72
2022/09/05 06:00:06;;;;;;;12.63;7.75;;;;;;;15.25;86.92;101835.97;5043946;28;20115;-72
2022/09/05 06:03:06;;;;;;;20.63;8.95;;;;;;;15.36;86.74;101843.56;5041623;28;20094;-72
2022/09/05 06:05:53;;;;;;;19.13;8.38;;;;;;;15.48;87.12;101843.22;5029808;28;20087;-72
2022/09/05 06:08:20;;;;;;;19.45;11.02;;;;;;;15.58;85.68;101854.34;5044383;28;20043;-72
2022/09/05 06:10:53;;;;;;;13.95;9.70;;;;;;;15.68;85.12;101848.78;5041885;28;20370;-72
2022/09/05 06:13:57;;;;;;;14.10;8.43;;;;;;;15.80;85.05;101849.38;5036884;28;20021;-72
2022/09/05 06:16:37;;;;;;;25.45;11.02;;;;;;;15.94;84.23;101857.69;5031102;28;20025;-72
2022/09/05 06:19:39;;;;;;;15.23;9.82;;;;;;;16.07;83.75;101866.94;5030628;28;20069;-72
2022/09/05 06:22:17;;;;;;;15.63;10.50;;;;;;;16.21;82.67;101858.63;5035129;28;20020;-72
2022/09/05 06:25:13;;;;;;;17.30;10.07;;;;;;;16.40;82.21;101864.19;5030606;28;20515;-72
2022/09/05 06:27:58;;;;;;;18.40;10.45;;;;;;;16.56;81.51;101859.28;5041421;28;20028;-72
2022/09/05 06:30:24;;;;;;;25.48;11.57;;;;;;;16.70;80.41;101857.06;5034338;28;20040;-72
2022/09/05 06:33:20;;;;;;;31.40;10.75;;;;;;;16.81;80.19;101860.25;5030634;28;20021;-72
2022/09/05 06:35:56;;;;;;;24.27;11.23;;;;;;;17.00;78.58;101857.88;5030919;28;20044;-72
2022/09/05 06:38:43;;;;;;;25.38;12.00;;;;;;;17.17;78.63;101856.41;5030083;28;20488;-72
2022/09/05 06:41:32;;;;;;;26.90;11.02;;;;;;;17.34;78.43;101854.03;5030143;28;20044;-72
2022/09/05 06:44:22;;;;;;;22.45;10.35;;;;;;;17.55;77.03;101858.53;5031035;28;20034;-72
2022/09/05 06:46:52;;;;;;;17.33;10.70;;;;;;;17.71;75.21;101864.09;5030775;28;20029;-72
2022/09/05 06:49:32;;;;;;;17.90;10.35;;;;;;;17.87;74.89;101859.16;5029729;28;20385;-72
2022/09/05 06:52:19;;;;;;;12.50;10.10;;;;;;;18.00;74.12;101849.00;5030995;28;20029;-72
2022/09/05 06:55:21;;;;;;;12.10;9.27;;;;;;;18.17;74.01;101856.25;5030245;28;20474;-72
2022/09/05 06:58:11;;;;;;;15.38;9.23;;;;;;;18.31;73.81;101858.34;5039525;28;20487;-72
2022/09/05 07:00:43;;;;;;;13.77;9.48;;;;;;;18.34;73.14;101858.22;5050365;28;20097;-72
2022/09/05 07:03:46;;;;;;;15.07;8.30;;;;;;;18.44;72.36;101859.56;5044204;28;20029;-72
2022/09/05 07:06:35;;;;;;;11.20;8.13;;;;;;;18.55;70.63;101860.00;5051329;28;20033;-75
2022/09/05 07:09:20;;;;;;;13.95;7.88;;;;;;;18.64;69.85;101864.91;5062437;28;20021;-72
2022/09/05 07:12:18;;;;;;;14.80;7.57;;;;;;;18.73;70.25;101863.69;5053533;28;20032;-72
2022/09/05 07:15:07;;;;;;;12.52;6.57;;;;;;;18.84;68.98;101866.75;5046222;28;20481;-72
2022/09/05 07:17:55;;;;;;;10.25;5.93;;;;;;;19.00;69.50;101874.03;5049891;28;20052;-72
2022/09/05 07:20:25;;;;;;;14.40;6.13;;;;;;;19.08;67.68;101864.84;5052828;28;20021;-72
2022/09/05 07:23:08;;;;;;;8.68;5.18;;;;;;;19.14;67.48;101871.69;5066357;28;20021;-72
2022/09/05 07:25:34;;;;;;;7.70;4.50;;;;;;;19.16;65.26;101859.22;5063261;28;20067;-75
2022/09/05 07:28:05;;;;;;;5.13;4.20;;;;;;;19.22;63.63;101869.53;5053947;28;20094;-75
2022/09/05 07:30:32;;;;;;;10.65;4.65;;;;;;;19.30;63.19;101869.22;5053369;28;20083;-75
2022/09/05 07:33:01;;;;;;;7.13;4.35;;;;;;;19.42;61.99;101866.91;5053750;28;20021;-75
2022/09/05 07:35:29;;;;;;;7.55;4.47;;;;;;;19.54;61.20;101880.50;5054766;28;20040;-75
2022/09/05 07:38:05;;;;;;;7.65;4.32;;;;;;;19.61;61.73;101874.84;5053391;28;20108;-75
2022/09/05 07:40:36;;;;;;;9.93;5.20;;;;;;;19.71;61.20;101870.03;5053738;28;20075;-74
2022/09/05 07:43:11;;;;;;;6.68;3.83;;;;;;;19.84;60.87;101886.22;5052588;28;20045;-74
2022/09/05 07:45:45;;;;;;;8.10;3.80;;;;;;;19.94;60.79;101878.72;5056563;28;20048;-74
2022/09/05 07:48:18;;;;;;;7.40;3.85;;;;;;;20.06;60.56;101881.66;5053226;28;20021;-74
2022/09/05 07:50:51;;;;;;;8.02;3.92;;;;;;;20.15;59.16;101885.66;5052281;28;20036;-74
2022/09/05 07:53:18;;;;;;;6.78;4.03;;;;;;;20.26;59.68;101880.72;5049429;28;20025;-73
2022/09/05 07:55:48;;;;;;;11.52;4.25;;;;;;;20.43;58.73;101882.53;5063917;28;20016;-74
2022/09/05 07:58:18;;;;;;;7.38;3.30;;;;;;;20.60;57.99;101878.25;5053195;28;20057;-74
2022/09/05 08:00:50;;;;;;;7.40;3.72;;;;;;;20.80;57.46;101889.59;5050175;28;20024;-74
2022/09/05 08:03:16;;;;;;;7.53;4.03;;;;;;;20.90;58.02;101875.88;5052113;28;20032;-74
2022/09/05 08:05:45;;;;;;;5.28;3.85;;;;;;;21.00;57.83;101885.94;5052734;28;20025;-74
2022/09/05 08:08:23;;;;;;;6.22;3.70;;;;;;;21.10;57.31;101881.03;5053104;28;20025;-74
2022/09/05 08:11:00;;;;;;;7.68;3.58;;;;;;;21.27;56.88;101877.50;5051197;28;20090;-74
2022/09/05 08:13:47;;;;;;;5.10;3.50;;;;;;;21.41;57.77;101877.66;5063282;28;20025;-73
2022/09/05 08:16:17;;;;;;;6.70;3.08;;;;;;;21.59;55.70;101881.16;5039324;28;20025;-74
2022/09/05 08:18:48;;;;;;;7.25;3.35;;;;;;;21.74;55.19;101874.16;5053939;28;20048;-74
2022/09/05 08:21:46;;;;;;;8.38;3.28;;;;;;;21.89;54.98;101875.13;5054537;28;20024;-74
2022/09/05 08:24:23;;;;;;;5.22;2.83;;;;;;;21.97;55.13;101872.88;5054931;28;20055;-74
2022/09/05 08:27:03;;;;;;;8.98;3.05;;;;;;;22.15;54.33;101885.19;5052561;28;20033;-74
2022/09/05 08:29:37;;;;;;;5.55;3.13;;;;;;;22.31;53.44;101884.34;5052338;28;20017;-76
2022/09/05 08:32:07;;;;;;;7.68;3.10;;;;;;;22.42;52.10;101884.56;5052371;28;20013;-74
2022/09/05 08:34:42;;;;;;;5.75;2.90;;;;;;;22.47;53.15;101887.84;5051965;28;20033;-75
2022/09/05 08:37:11;;;;;;;4.47;2.90;;;;;;;22.62;52.74;101883.44;5053050;28;20032;-75
2022/09/05 08:39:39;;;;;;;6.30;2.80;;;;;;;22.76;51.69;101885.28;5055919;28;20025;-75
2022/09/05 08:42:07;;;;;;;6.88;2.85;;;;;;;22.89;51.44;101886.31;5052150;28;20050;-75
2022/09/05 08:44:39;;;;;;;8.27;3.10;;;;;;;23.03;50.91;101880.19;5056276;28;20060;-75
2022/09/05 08:47:31;;;;;;;7.20;3.60;;;;;;;23.05;52.34;101881.84;5051929;28;20104;-75
2022/09/05 08:50:16;;;;;;;6.40;3.13;;;;;;;23.22;51.54;101890.59;5057207;28;20029;-74
2022/09/05 08:53:03;;;;;;;9.68;3.53;;;;;;;23.34;51.87;101869.41;5046413;28;20017;-75
2022/09/05 08:55:52;;;;;;;5.60;2.92;;;;;;;23.43;49.73;101865.34;5036869;28;20059;-74
2022/09/05 08:58:30;;;;;;;3.55;2.58;;;;;;;23.62;50.18;101870.38;5051681;28;20043;-75
2022/09/05 09:01:16;;;;;;;5.60;2.88;;;;;;;23.74;49.91;101866.13;5038381;28;20511;-74
2022/09/05 09:03:52;;;;;;;4.90;3.10;;;;;;;23.90;47.40;101868.66;5052223;28;20369;-74
2022/09/05 09:06:20;;;;;;;4.15;2.78;;;;;;;23.98;47.64;101867.25;5058789;28;20586;-74
2022/09/05 09:09:05;;;;;;;6.45;3.00;;;;;;;24.08;47.74;101861.31;5056393;28;20025;-74
2022/09/05 09:11:46;;;;;;;6.55;2.72;;;;;;;24.19;46.90;101861.47;5059673;28;20032;-74
2022/09/05 09:14:49;;;;;;;5.78;2.80;;;;;;;24.28;47.61;101858.22;5057076;28;20369;-74
2022/09/05 09:17:27;;;;;;;6.60;2.88;;;;;;;24.38;46.50;101855.81;5050932;28;20116;-73
2022/09/05 09:20:05;;;;;;;4.13;2.38;;;;;;;24.43;45.29;101851.94;5051971;28;20032;-73
2022/09/05 09:23:07;;;;;;;5.18;2.60;;;;;;;24.52;46.17;101848.66;5047849;28;20032;-73
2022/09/05 09:25:57;;;;;;;3.97;2.45;;;;;;;24.72;45.50;101846.44;5044669;28;20040;-73
2022/09/05 09:28:45;;;;;;;2.58;2.20;;;;;;;24.87;44.81;101844.56;5036704;28;20174;-74
2022/09/05 09:32:05;;;;;;;7.47;3.00;;;;;;;25.06;44.98;101845.03;5048334;28;20457;-74
2022/09/05 09:35:02;;;;;;;4.38;2.38;;;;;;;25.15;43.51;101847.09;5052746;28;20099;-74
2022/09/05 09:37:55;;;;;;;6.28;2.20;;;;;;;25.27;43.27;101847.19;5047552;28;20041;-74
2022/09/05 09:40:42;;;;;;;3.67;2.33;;;;;;;25.35;42.54;101839.50;5040374;28;20028;-74
2022/09/05 09:43:22;;;;;;;4.75;2.30;;;;;;;25.42;41.82;101833.63;5060238;28;20079;-74
2022/09/05 09:46:08;;;;;;;5.97;2.70;;;;;;;25.54;43.21;101839.03;5052325;28;20060;-74
2022/09/05 09:49:06;;;;;;;4.85;2.10;;;;;;;25.58;42.40;101835.22;5044998;28;20028;-74
2022/09/05 09:52:11;;;;;;;6.20;2.33;;;;;;;25.67;40.58;101840.75;5049735;28;20358;-74
2022/09/05 09:54:51;;;;;;;2.53;2.17;;;;;;;25.85;40.24;101825.25;5040369;28;20037;-74
2022/09/05 09:57:49;;;;;;;3.33;2.13;;;;;;;26.05;39.98;101828.28;5048943;28;20021;-74
2022/09/05 10:00:20;;;;;;;3.83;2.08;;;;;;;26.11;39.00;101830.50;5040940;28;20143;-75
2022/09/05 10:03:23;;;;;;;2.78;1.92;;;;;;;26.15;40.07;101831.97;5055448;28;20028;-74
2022/09/05 10:06:00;;;;;;;4.25;2.10;;;;;;;26.28;38.89;101819.41;5054596;28;20043;-74
2022/09/05 10:09:09;;;;;;;5.72;2.17;;;;;;;26.48;38.63;101819.75;5043461;28;20033;-74
2022/09/05 10:12:12;;;;;;;3.90;2.28;;;;;;;26.66;39.54;101814.88;5040841;28;20068;-75
2022/09/05 10:14:58;;;;;;;4.43;2.28;;;;;;;26.76;38.45;101813.19;5050949;28;20044;-74
2022/09/05 10:18:00;;;;;;;3.45;2.20;;;;;;;26.83;37.88;101804.56;5042544;28;20108;-75
2022/09/05 10:20:25;;;;;;;3.63;2.20;;;;;;;26.91;37.98;101800.44;5046383;28;20035;-74
2022/09/05 10:22:53;;;;;;;4.87;2.20;;;;;;;26.96;37.81;101803.63;5050844;28;20338;-74
2022/09/05 10:25:37;;;;;;;4.30;2.30;;;;;;;27.07;37.89;101808.97;5050144;28;20041;-75
2022/09/05 10:28:35;;;;;;;3.15;2.03;;;;;;;27.18;37.81;101798.31;5041137;28;20397;-74
2022/09/05 10:31:14;;;;;;;6.07;2.15;;;;;;;27.29;36.89;101798.31;5047602;28;20496;-75
2022/09/05 10:33:47;;;;;;;3.63;2.10;;;;;;;27.40;36.75;101799.28;5048883;28;20158;-75
2022/09/05 10:36:25;;;;;;;3.95;2.00;;;;;;;27.63;37.41;101795.63;5032521;28;20036;-74
2022/09/05 10:39:00;;;;;;;6.32;1.80;;;;;;;27.82;35.18;101792.31;5030256;28;20535;-75
2022/09/05 10:41:48;;;;;;;2.95;2.00;;;;;;;27.98;34.48;101791.91;5043953;28;20491;-74
2022/09/05 10:44:14;;;;;;;2.40;1.70;;;;;;;28.12;32.33;101793.47;5044554;28;20495;-74
2022/09/05 10:46:54;;;;;;;3.17;2.00;;;;;;;28.18;34.11;101782.22;5050303;28;20430;-74
2022/09/05 10:49:26;;;;;;;3.78;2.00;;;;;;;28.28;34.83;101785.84;5039184;28;20033;-74
2022/09/05 10:52:05;;;;;;;4.27;1.83;;;;;;;28.34;32.64;101779.97;5048888;28;20017;-75
2022/09/05 10:54:36;;;;;;;1.80;1.52;;;;;;;28.46;33.01;101781.66;5043866;28;20029;-74
2022/09/05 10:57:20;;;;;;;4.57;1.85;;;;;;;28.53;33.18;101775.78;5048130;28;20115;-75
2022/09/05 10:59:52;;;;;;;2.75;1.60;;;;;;;28.59;32.97;101776.09;5048670;28;20033;-75
2022/09/05 11:02:22;;;;;;;7.10;2.08;;;;;;;28.67;31.98;101776.28;5053363;28;20021;-74
2022/09/05 11:05:11;;;;;;;3.42;1.63;;;;;;;28.85;33.83;101778.38;5054542;28;20033;-74
2022/09/05 11:07:58;;;;;;;4.35;2.05;;;;;;;28.98;31.95;101772.81;5032174;28;20044;-74
2022/09/05 11:10:33;;;;;;;4.18;2.20;;;;;;;29.07;31.98;101766.63;5053571;28;20028;-74
2022/09/05 11:13:15;;;;;;;2.55;1.83;;;;;;;29.20;32.28;101769.94;5054335;28;20037;-74
2022/09/05 11:15:59;;;;;;;5.63;1.88;;;;;;;29.38;33.83;101762.97;5045512;28;20104;-74
2022/09/05 11:18:33;;;;;;;3.15;1.60;;;;;;;29.61;31.74;101760.09;5053002;28;20035;-75
2022/09/05 11:21:25;;;;;;;3.42;1.80;;;;;;;29.69;32.33;101756.69;5050220;28;20496;-74
2022/09/05 11:23:57;;;;;;;3.45;2.13;;;;;;;29.91;31.71;101759.13;5050506;28;20037;-74
2022/09/05 11:26:35;;;;;;;2.85;2.00;;;;;;;29.96;30.68;101759.59;5053728;28;20491;-74
2022/09/05 11:29:33;;;;;;;2.30;1.88;;;;;;;30.08;30.77;101758.47;5046269;28;20066;-75
2022/09/05 11:32:22;;;;;;;7.55;2.08;;;;;;;30.16;29.87;101759.59;5046124;28;20021;-75
2022/09/05 11:35:16;;;;;;;2.67;1.80;;;;;;;30.31;31.82;101755.50;5052997;28;20033;-75
2022/09/05 11:38:09;;;;;;;3.38;2.00;;;;;;;30.44;30.88;101756.03;5053312;28;20028;-74
2022/09/05 11:40:50;;;;;;;3.38;2.13;;;;;;;30.54;31.82;101746.13;5053454;28;20037;-75
2022/09/05 11:43:41;;;;;;;5.00;2.05;;;;;;;30.92;32.22;101749.72;5051712;28;20056;-75
2022/09/05 11:46:26;;;;;;;4.32;1.73;;;;;;;31.27;30.03;101739.25;5058768;28;20063;-75
2022/09/05 11:49:31;;;;;;;5.07;2.00;;;;;;;32.00;29.33;101748.19;5043883;28;20397;-75
2022/09/05 11:52:27;;;;;;;4.28;1.90;;;;;;;32.97;28.36;101743.72;5045746;28;20037;-75
2022/09/05 11:55:07;;;;;;;5.53;2.13;;;;;;;33.77;27.14;101742.31;5040478;28;20436;-75
2022/09/05 11:58:02;;;;;;;2.50;2.13;;;;;;;34.76;26.24;101729.63;5034345;28;20516;-76
2022/09/05 12:00:55;;;;;;;2.30;2.10;;;;;;;35.81;25.03;101726.63;5048377;28;20036;-76
2022/09/05 12:03:24;;;;;;;2.60;1.80;;;;;;;36.09;22.81;101727.75;5044173;28;20037;-75
2022/09/05 12:06:21;;;;;;;5.13;1.80;;;;;;;36.85;23.58;101729.56;5048614;28;20397;-73
2022/09/05 12:09:08;;;;;;;2.13;1.95;;;;;;;37.03;22.34;101730.06;5050741;28;20036;-73
2022/09/05 12:12:21;;;;;;;2.15;1.80;;;;;;;37.29;22.74;101726.84;5049125;28;20033;-73
2022/09/05 12:14:59;;;;;;;3.10;2.00;;;;;;;37.69;22.03;101719.16;5045298;28;20032;-73
2022/09/05 12:17:36;;;;;;;2.40;1.95;;;;;;;37.67;21.88;101718.47;5039861;28;20030;-73
2022/09/05 12:20:19;;;;;;;3.47;2.03;;;;;;;37.90;22.54;101719.16;5032369;28;20021;-73
2022/09/05 12:22:57;;;;;;;2.40;1.90;;;;;;;38.08;21.19;101710.53;5036121;28;20111;-73
2022/09/05 12:25:27;;;;;;;4.00;2.20;;;;;;;38.15;20.06;101710.59;5038791;28;20090;-73
2022/09/05 12:27:59;;;;;;;2.08;1.92;;;;;;;38.08;20.39;101710.53;5039342;28;20048;-73
2022/09/05 12:30:30;;;;;;;2.80;2.10;;;;;;;38.16;19.79;101712.25;5034631;28;20481;-73
2022/09/05 12:33:09;;;;;;;4.30;2.20;;;;;;;38.37;19.83;101708.69;5038219;28;20033;-73
2022/09/05 12:35:40;;;;;;;2.72;1.92;;;;;;;38.45;18.91;101710.41;5034707;28;20109;-73